createdAt,value
2018-06-24T00:00:16.946Z,984.2
2018-06-24T00:01:26.961Z,984.22
2018-06-24T00:02:36.443Z,984.21
2018-06-24T00:03:46.448Z,984.24
2018-06-24T00:04:55.922Z,984.2
2018-06-24T00:06:05.658Z,984.25
2018-06-24T00:07:15.674Z,984.27
2018-06-24T00:08:25.683Z,984.31
2018-06-24T00:09:35.692Z,984.33
2018-06-24T00:10:45.700Z,984.34
2018-06-24T00:11:55.442Z,984.35
2018-06-24T00:13:04.917Z,984.33
2018-06-24T00:14:14.682Z,984.34
2018-06-24T00:15:24.694Z,984.31
2018-06-24T00:16:34.466Z,984.34
2018-06-24T00:17:44.471Z,984.34
2018-06-24T00:18:54.208Z,984.36
2018-06-24T00:20:03.731Z,984.36
2018-06-24T00:21:13.208Z,984.37
2018-06-24T00:22:23.219Z,984.35
2018-06-24T00:23:32.966Z,984.44
2018-06-24T00:24:42.728Z,984.43
2018-06-24T00:25:52.743Z,984.45
2018-06-24T00:27:02.483Z,984.45
2018-06-24T00:28:11.955Z,984.43
2018-06-24T00:29:21.968Z,984.4
2018-06-24T00:30:31.439Z,984.46
2018-06-24T00:31:41.216Z,984.42
2018-06-24T00:32:51.219Z,984.38
2018-06-24T00:34:01.232Z,984.4
2018-06-24T00:35:10.976Z,984.43
2018-06-24T00:36:20.729Z,984.47
2018-06-24T00:37:30.471Z,984.45
2018-06-24T00:38:39.953Z,984.44
2018-06-24T00:39:49.957Z,984.46
2018-06-24T00:40:59.968Z,984.45
2018-06-24T00:42:09.974Z,984.48
2018-06-24T00:43:19.717Z,984.48
2018-06-24T00:44:29.186Z,984.45
2018-06-24T00:45:38.929Z,984.5
2018-06-24T00:46:48.941Z,984.51
2018-06-24T00:47:58.951Z,984.54
2018-06-24T00:49:08.689Z,984.55
2018-06-24T00:50:18.434Z,984.5
2018-06-24T00:51:28.167Z,984.48
2018-06-24T00:52:37.644Z,984.51
2018-06-24T00:53:47.652Z,984.49
2018-06-24T00:54:57.396Z,984.51
2018-06-24T00:56:06.604Z,984.58
2018-06-24T00:57:16.616Z,984.56
2018-06-24T00:58:26.359Z,984.54
2018-06-24T00:59:36.098Z,984.57
2018-06-24T01:00:45.836Z,984.61
2018-06-24T01:01:55.576Z,984.64
2018-06-24T01:03:05.049Z,984.6
2018-06-24T01:04:14.784Z,984.59
2018-06-24T01:05:24.529Z,984.6
2018-06-24T01:06:34.006Z,984.62
2018-06-24T01:07:44.016Z,984.6
2018-06-24T01:08:53.501Z,984.62
2018-06-24T01:10:03.519Z,984.6
2018-06-24T01:11:13.544Z,984.61
2018-06-24T01:12:23.300Z,984.59
2018-06-24T01:13:32.508Z,984.56
2018-06-24T01:14:42.521Z,984.55
2018-06-24T01:15:52.538Z,984.58
2018-06-24T01:17:02.545Z,984.61
2018-06-24T01:18:12.289Z,984.63
2018-06-24T01:19:22.030Z,984.66
2018-06-24T01:20:31.771Z,984.68
2018-06-24T01:21:41.771Z,984.69
2018-06-24T01:22:51.777Z,984.72
2018-06-24T01:24:01.522Z,984.7
2018-06-24T01:25:10.997Z,984.64
2018-06-24T01:26:20.998Z,984.67
2018-06-24T01:27:30.737Z,984.62
2018-06-24T01:28:40.748Z,984.59
2018-06-24T01:29:50.751Z,984.61
2018-06-24T01:31:00.538Z,984.61
2018-06-24T01:32:10.275Z,984.61
2018-06-24T01:33:20.020Z,984.58
2018-06-24T01:34:30.022Z,984.59
2018-06-24T01:35:40.024Z,984.6
2018-06-24T01:36:49.769Z,984.58
2018-06-24T01:37:59.520Z,984.62
2018-06-24T01:39:09.533Z,984.62
2018-06-24T01:40:19.273Z,984.65
2018-06-24T01:41:29.285Z,984.66
2018-06-24T01:42:39.294Z,984.64
2018-06-24T01:43:49.308Z,984.62
2018-06-24T01:44:59.355Z,984.58
2018-06-24T01:46:08.827Z,984.63
2018-06-24T01:47:18.572Z,984.63
2018-06-24T01:48:28.665Z,984.69
2018-06-24T01:49:38.679Z,984.73
2018-06-24T01:50:48.737Z,984.77
2018-06-24T01:51:58.481Z,984.77
2018-06-24T01:53:08.224Z,984.77
2018-06-24T01:54:17.974Z,984.81
2018-06-24T01:55:27.713Z,984.84
2018-06-24T01:56:37.729Z,984.82
2018-06-24T01:57:47.740Z,984.87
2018-06-24T01:58:57.747Z,984.9
2018-06-24T02:00:07.214Z,984.91
2018-06-24T02:01:17.234Z,984.91
2018-06-24T02:02:30.742Z,984.91
2018-06-24T02:03:40.755Z,984.85
2018-06-24T02:04:50.767Z,984.89
2018-06-24T02:06:00.771Z,984.87
2018-06-24T02:07:10.012Z,984.86
2018-06-24T02:08:19.971Z,984.93
2018-06-24T02:09:29.977Z,984.9
2018-06-24T02:10:39.980Z,984.93
2018-06-24T02:11:49.728Z,984.87
2018-06-24T02:12:59.732Z,984.9
2018-06-24T02:14:09.464Z,984.87
2018-06-24T02:15:19.459Z,984.9
2018-06-24T02:16:29.204Z,984.88
2018-06-24T02:17:38.683Z,984.92
2018-06-24T02:18:48.696Z,984.93
2018-06-24T02:20:01.937Z,984.92
2018-06-24T02:21:11.413Z,984.92
2018-06-24T02:22:20.885Z,984.94
2018-06-24T02:23:30.621Z,984.94
2018-06-24T02:24:40.364Z,984.97
2018-06-24T02:25:49.844Z,984.93
2018-06-24T02:26:59.584Z,984.92
2018-06-24T02:28:09.592Z,984.87
2018-06-24T02:29:19.605Z,984.85
2018-06-24T02:30:29.076Z,984.87
2018-06-24T02:31:39.164Z,984.91
2018-06-24T02:32:48.636Z,984.95
2018-06-24T02:33:58.388Z,984.98
2018-06-24T02:35:08.399Z,985.02
2018-06-24T02:36:17.871Z,985.06
2018-06-24T02:37:27.934Z,985.09
2018-06-24T02:38:37.968Z,985.09
2018-06-24T02:39:47.176Z,985.08
2018-06-24T02:40:56.927Z,985.13
2018-06-24T02:42:06.672Z,985.09
2018-06-24T02:43:16.410Z,985.09
2018-06-24T02:44:26.422Z,985.08
2018-06-24T02:45:36.215Z,985.12
2018-06-24T02:46:46.253Z,985.15
2018-06-24T02:47:55.733Z,985.16
2018-06-24T02:49:05.216Z,985.2
2018-06-24T02:50:15.227Z,985.21
2018-06-24T02:51:24.713Z,985.2
2018-06-24T02:52:34.734Z,985.23
2018-06-24T02:53:44.089Z,985.22
2018-06-24T02:54:53.952Z,985.25
2018-06-24T02:56:03.982Z,985.24
2018-06-24T02:57:14.018Z,985.26
2018-06-24T02:58:23.767Z,985.27
2018-06-24T02:59:33.782Z,985.29
2018-06-24T03:03:22.800Z,985.32
2018-06-24T03:04:32.287Z,985.33
2018-06-24T03:05:42.298Z,985.34
2018-06-24T03:06:52.314Z,985.37
2018-06-24T03:08:02.061Z,985.4
2018-06-24T03:09:11.805Z,985.41
2018-06-24T03:10:21.016Z,985.42
2018-06-24T03:11:30.751Z,985.41
2018-06-24T03:12:39.974Z,985.43
2018-06-24T03:13:49.721Z,985.44
2018-06-24T03:14:59.750Z,985.46
2018-06-24T03:16:09.496Z,985.46
2018-06-24T03:17:19.509Z,985.51
2018-06-24T03:18:28.983Z,985.54
2018-06-24T03:19:38.741Z,985.51
2018-06-24T03:20:48.785Z,985.56
2018-06-24T03:21:58.530Z,985.55
2018-06-24T03:23:08.281Z,985.56
2018-06-24T03:24:18.317Z,985.52
2018-06-24T03:25:28.055Z,985.6
2018-06-24T03:26:37.804Z,985.53
2018-06-24T03:27:47.809Z,985.56
2018-06-24T03:28:57.547Z,985.53
2018-06-24T03:30:07.301Z,985.51
2018-06-24T03:31:17.070Z,985.47
2018-06-24T03:32:26.828Z,985.53
2018-06-24T03:33:36.568Z,985.51
2018-06-24T03:34:46.578Z,985.46
2018-06-24T03:35:56.583Z,985.48
2018-06-24T03:37:05.793Z,985.48
2018-06-24T03:38:15.530Z,985.5
2018-06-24T03:39:25.335Z,985.48
2018-06-24T03:40:35.076Z,985.49
2018-06-24T03:41:45.083Z,985.53
2018-06-24T03:42:54.556Z,985.57
2018-06-24T03:44:04.295Z,985.57
2018-06-24T03:45:14.048Z,985.58
2018-06-24T03:46:23.519Z,985.58
2018-06-24T03:47:33.528Z,985.61
2018-06-24T03:48:43.533Z,985.62
2018-06-24T03:49:53.541Z,985.62
2018-06-24T03:51:03.551Z,985.62
2018-06-24T03:52:13.291Z,985.61
2018-06-24T03:53:23.030Z,985.61
2018-06-24T03:54:32.769Z,985.59
2018-06-24T03:55:42.775Z,985.57
2018-06-24T03:56:52.778Z,985.57
2018-06-24T03:58:02.823Z,985.61
2018-06-24T03:59:12.965Z,985.62
2018-06-24T04:00:22.976Z,985.59
2018-06-24T04:01:32.986Z,985.63
2018-06-24T04:02:43.004Z,985.69
2018-06-24T04:03:53.015Z,985.71
2018-06-24T04:05:02.761Z,985.69
2018-06-24T04:06:12.505Z,985.7
2018-06-24T04:07:22.526Z,985.7
2018-06-24T04:08:32.277Z,985.71
2018-06-24T04:09:42.286Z,985.69
2018-06-24T04:10:52.294Z,985.68
2018-06-24T04:12:02.327Z,985.67
2018-06-24T04:13:12.336Z,985.65
2018-06-24T04:14:22.081Z,985.65
2018-06-24T04:15:31.554Z,985.66
2018-06-24T04:16:41.564Z,985.66
2018-06-24T04:17:51.308Z,985.62
2018-06-24T04:19:01.315Z,985.66
2018-06-24T04:20:11.327Z,985.6
2018-06-24T04:21:21.333Z,985.6
2018-06-24T04:22:31.350Z,985.63
2018-06-24T04:23:41.359Z,985.61
2018-06-24T04:24:51.365Z,985.6
2018-06-24T04:26:01.129Z,985.59
2018-06-24T04:27:11.147Z,985.6
2018-06-24T04:28:21.154Z,985.63
2018-06-24T04:29:30.637Z,985.64
2018-06-24T04:30:40.109Z,985.68
2018-06-24T04:31:49.849Z,985.69
2018-06-24T04:32:59.330Z,985.72
2018-06-24T04:34:09.074Z,985.71
2018-06-24T04:35:19.089Z,985.71
2018-06-24T04:36:28.029Z,985.72
2018-06-24T04:37:38.039Z,985.72
2018-06-24T04:38:47.787Z,985.71
2018-06-24T04:39:57.801Z,985.75
2018-06-24T04:41:07.279Z,985.8
2018-06-24T04:42:17.026Z,985.77
2018-06-24T04:43:27.048Z,985.8
2018-06-24T04:44:36.788Z,985.78
2018-06-24T04:45:46.797Z,985.82
2018-06-24T04:46:56.540Z,985.8
2018-06-24T04:48:06.548Z,985.88
2018-06-24T04:49:16.290Z,985.85
2018-06-24T04:50:26.033Z,985.88
2018-06-24T04:51:35.896Z,985.89
2018-06-24T04:52:46.351Z,985.93
2018-06-24T04:53:56.359Z,985.95
2018-06-24T04:55:06.369Z,985.93
2018-06-24T04:56:15.575Z,985.96
2018-06-24T04:57:25.588Z,985.98
2018-06-24T04:58:35.593Z,985.95
2018-06-24T04:59:45.342Z,985.98
2018-06-24T05:00:55.081Z,985.99
2018-06-24T05:02:04.826Z,985.96
2018-06-24T05:03:14.834Z,985.97
2018-06-24T05:04:24.843Z,986.01
2018-06-24T05:05:34.326Z,986.03
2018-06-24T05:06:44.336Z,985.97
2018-06-24T05:07:53.814Z,985.97
2018-06-24T05:09:03.290Z,985.91
2018-06-24T05:10:13.041Z,985.93
2018-06-24T05:11:23.046Z,985.92
2018-06-24T05:12:32.797Z,985.89
2018-06-24T05:13:42.536Z,985.95
2018-06-24T05:14:52.280Z,985.95
2018-06-24T05:16:02.293Z,985.98
2018-06-24T05:17:11.769Z,985.99
2018-06-24T05:18:21.775Z,986.01
2018-06-24T05:19:31.782Z,986.05
2018-06-24T05:20:41.523Z,986.09
2018-06-24T05:21:51.540Z,986.06
2018-06-24T05:23:01.550Z,986.13
2018-06-24T05:24:11.295Z,986.05
2018-06-24T05:25:21.035Z,986.08
2018-06-24T05:26:30.246Z,986.1
2018-06-24T05:27:39.995Z,986.1
2018-06-24T05:28:50.092Z,986.07
2018-06-24T05:30:00.151Z,986.09
2018-06-24T05:31:10.178Z,986.15
2018-06-24T05:32:19.916Z,986.19
2018-06-24T05:33:29.653Z,986.2
2018-06-24T05:34:39.394Z,986.24
2018-06-24T05:35:49.406Z,986.25
2018-06-24T05:36:59.411Z,986.3
2018-06-24T05:38:09.155Z,986.21
2018-06-24T05:39:19.165Z,986.21
2018-06-24T05:40:29.171Z,986.21
2018-06-24T05:41:38.648Z,986.21
2018-06-24T05:42:48.658Z,986.24
2018-06-24T05:43:58.193Z,986.23
2018-06-24T05:45:07.712Z,986.25
2018-06-24T05:46:17.725Z,986.26
2018-06-24T05:47:27.739Z,986.26
2018-06-24T05:48:37.748Z,986.24
2018-06-24T05:49:47.925Z,986.27
2018-06-24T05:50:57.663Z,986.3
2018-06-24T05:52:07.406Z,986.28
2018-06-24T05:53:16.880Z,986.28
2018-06-24T05:54:26.886Z,986.27
2018-06-24T05:55:36.634Z,986.27
2018-06-24T05:56:46.384Z,986.27
2018-06-24T05:57:56.404Z,986.29
2018-06-24T05:59:05.617Z,986.28
2018-06-24T06:00:15.363Z,986.27
2018-06-24T06:01:25.370Z,986.31
2018-06-24T06:02:35.115Z,986.31
2018-06-24T06:03:45.126Z,986.28
2018-06-24T06:04:55.144Z,986.29
2018-06-24T06:06:04.886Z,986.29
2018-06-24T06:07:14.365Z,986.3
2018-06-24T06:08:24.104Z,986.29
2018-06-24T06:09:34.115Z,986.31
2018-06-24T06:10:43.592Z,986.27
2018-06-24T06:11:53.351Z,986.27
2018-06-24T06:13:03.364Z,986.3
2018-06-24T06:14:13.116Z,986.29
2018-06-24T06:15:22.855Z,986.28
2018-06-24T06:16:32.859Z,986.32
2018-06-24T06:17:42.875Z,986.28
2018-06-24T06:18:52.884Z,986.3
2018-06-24T06:20:02.902Z,986.27
2018-06-24T06:21:12.926Z,986.26
2018-06-24T06:22:22.937Z,986.27
2018-06-24T06:23:32.942Z,986.27
2018-06-24T06:24:42.687Z,986.3
2018-06-24T06:25:52.694Z,986.29
2018-06-24T06:27:02.704Z,986.3
2018-06-24T06:28:12.185Z,986.26
2018-06-24T06:29:21.927Z,986.26
2018-06-24T06:30:31.711Z,986.25
2018-06-24T06:31:41.724Z,986.28
2018-06-24T06:32:51.474Z,986.3
2018-06-24T06:34:01.215Z,986.3
2018-06-24T06:35:10.435Z,986.33
2018-06-24T06:36:20.454Z,986.33
2018-06-24T06:37:30.201Z,986.35
2018-06-24T06:38:40.225Z,986.37
2018-06-24T06:39:50.240Z,986.4
2018-06-24T06:40:59.986Z,986.39
2018-06-24T06:42:09.732Z,986.35
2018-06-24T06:43:19.739Z,986.39
2018-06-24T06:44:29.241Z,986.43
2018-06-24T06:45:39.524Z,986.44
2018-06-24T06:46:51.132Z,986.4
2018-06-24T06:48:00.883Z,986.41
2018-06-24T06:49:10.893Z,986.35
2018-06-24T06:50:20.372Z,986.37
2018-06-24T06:51:29.846Z,986.37
2018-06-24T06:52:39.859Z,986.4
2018-06-24T06:53:49.607Z,986.42
2018-06-24T06:54:59.616Z,986.36
2018-06-24T06:56:09.097Z,986.36
2018-06-24T06:57:19.118Z,986.34
2018-06-24T06:58:29.127Z,986.35
2018-06-24T06:59:38.875Z,986.33
2018-06-24T07:00:48.353Z,986.37
2018-06-24T07:01:58.100Z,986.35
2018-06-24T07:03:07.587Z,986.34
2018-06-24T07:04:17.392Z,986.36
2018-06-24T07:05:26.881Z,986.28
2018-06-24T07:06:36.625Z,986.29
2018-06-24T07:07:46.642Z,986.24
2018-06-24T07:08:56.659Z,986.29
2018-06-24T07:10:06.672Z,986.28
2018-06-24T07:11:16.692Z,986.29
2018-06-24T07:12:26.441Z,986.29
2018-06-24T07:13:36.185Z,986.29
2018-06-24T07:14:46.195Z,986.31
2018-06-24T07:15:55.405Z,986.33
2018-06-24T07:17:05.151Z,986.34
2018-06-24T07:18:15.167Z,986.34
2018-06-24T07:19:25.186Z,986.34
2018-06-24T07:20:35.195Z,986.34
2018-06-24T07:21:44.404Z,986.32
2018-06-24T07:22:54.412Z,986.3
2018-06-24T07:24:04.437Z,986.31
2018-06-24T07:25:14.450Z,986.32
2018-06-24T07:26:24.460Z,986.31
2018-06-24T07:27:34.512Z,986.36
2018-06-24T07:28:44.421Z,986.34
2018-06-24T07:29:54.427Z,986.39
2018-06-24T07:31:04.453Z,986.37
2018-06-24T07:32:14.194Z,986.36
2018-06-24T07:33:24.289Z,986.32
2018-06-24T07:34:34.616Z,986.35
2018-06-24T07:35:44.357Z,986.33
2018-06-24T07:36:54.105Z,986.35
2018-06-24T07:38:03.845Z,986.33
2018-06-24T07:39:13.873Z,986.35
2018-06-24T07:40:23.600Z,986.32
2018-06-24T07:41:33.354Z,986.27
2018-06-24T07:42:43.374Z,986.3
2018-06-24T07:43:53.383Z,986.28
2018-06-24T07:45:03.396Z,986.25
2018-06-24T07:46:13.410Z,986.28
2018-06-24T07:47:23.437Z,986.26
2018-06-24T07:48:33.185Z,986.28
2018-06-24T07:49:43.196Z,986.3
2018-06-24T07:50:52.937Z,986.28
2018-06-24T07:52:02.955Z,986.27
2018-06-24T07:53:12.965Z,986.26
2018-06-24T07:54:22.706Z,986.35
2018-06-24T07:55:31.915Z,986.36
2018-06-24T07:56:41.938Z,986.31
2018-06-24T07:57:51.949Z,986.28
2018-06-24T07:59:01.971Z,986.29
2018-06-24T08:00:11.985Z,986.3
2018-06-24T08:01:21.726Z,986.29
2018-06-24T08:02:31.753Z,986.24
2018-06-24T08:03:41.500Z,986.28
2018-06-24T08:04:50.980Z,986.21
2018-06-24T08:06:00.995Z,986.2
2018-06-24T08:07:11.027Z,986.22
2018-06-24T08:08:20.769Z,986.21
2018-06-24T08:09:30.836Z,986.22
2018-06-24T08:10:40.861Z,986.24
2018-06-24T08:11:50.892Z,986.19
2018-06-24T08:13:00.919Z,986.17
2018-06-24T08:14:10.976Z,986.17
2018-06-24T08:15:20.456Z,986.19
2018-06-24T08:16:30.468Z,986.19
2018-06-24T08:17:40.217Z,986.18
2018-06-24T08:18:49.697Z,986.19
2018-06-24T08:19:59.711Z,986.16
2018-06-24T08:21:09.757Z,986.14
2018-06-24T08:22:19.773Z,986.15
2018-06-24T08:23:29.784Z,986.14
2018-06-24T08:24:39.801Z,986.17
2018-06-24T08:25:49.591Z,986.13
2018-06-24T08:26:59.614Z,986.17
2018-06-24T08:28:09.360Z,986.16
2018-06-24T08:29:18.836Z,986.22
2018-06-24T08:30:28.852Z,986.18
2018-06-24T08:31:38.362Z,986.23
2018-06-24T08:32:48.957Z,986.22
2018-06-24T08:33:58.434Z,986.21
2018-06-24T08:35:07.924Z,986.22
2018-06-24T08:36:17.668Z,986.19
2018-06-24T08:37:27.690Z,986.15
2018-06-24T08:38:37.701Z,986.12
2018-06-24T08:39:47.719Z,986.17
2018-06-24T08:40:57.740Z,986.14
2018-06-24T08:42:07.750Z,986.15
2018-06-24T08:43:16.963Z,986.16
2018-06-24T08:44:27.026Z,986.14
2018-06-24T08:45:36.506Z,986.14
2018-06-24T08:46:46.543Z,986.17
2018-06-24T08:47:56.032Z,986.12
2018-06-24T08:49:05.773Z,986.16
2018-06-24T08:50:14.989Z,986.17
2018-06-24T08:51:24.737Z,986.16
2018-06-24T08:52:34.489Z,986.13
2018-06-24T08:53:44.231Z,986.16
2018-06-24T08:54:54.255Z,986.1
2018-06-24T08:56:04.269Z,986.1
2018-06-24T08:57:14.019Z,986.12
2018-06-24T08:58:23.772Z,986.1
2018-06-24T08:59:33.796Z,986.08
2018-06-24T09:00:43.558Z,986.06
2018-06-24T09:01:53.671Z,986.06
2018-06-24T09:03:03.688Z,986.05
2018-06-24T09:04:13.701Z,986.08
2018-06-24T09:05:23.714Z,986.03
2018-06-24T09:06:33.742Z,986.05
2018-06-24T09:07:43.501Z,986.03
2018-06-24T09:08:53.519Z,986.02
2018-06-24T09:10:03.264Z,986.08
2018-06-24T09:11:12.760Z,986.08
2018-06-24T09:12:22.240Z,986.03
2018-06-24T09:13:31.984Z,986.03
2018-06-24T09:14:42.143Z,986.02
2018-06-24T09:15:52.267Z,986.06
2018-06-24T09:17:02.525Z,986.07
2018-06-24T09:18:12.535Z,986.09
2018-06-24T09:19:22.286Z,986.07
2018-06-24T09:20:32.035Z,986.1
2018-06-24T09:21:42.059Z,986.06
2018-06-24T09:22:52.078Z,986.11
2018-06-24T09:24:02.125Z,986.11
2018-06-24T09:25:11.876Z,986.12
2018-06-24T09:26:21.892Z,986.13
2018-06-24T09:27:31.903Z,986.15
2018-06-24T09:28:42.160Z,986.14
2018-06-24T09:29:51.640Z,986.14
2018-06-24T09:31:01.654Z,986.11
2018-06-24T09:32:10.862Z,986.09
2018-06-24T09:33:20.875Z,986.13
2018-06-24T09:34:30.622Z,986.11
2018-06-24T09:35:40.370Z,986.12
2018-06-24T09:36:50.391Z,986.16
2018-06-24T09:38:00.412Z,986.16
2018-06-24T09:39:10.153Z,986.13
2018-06-24T09:40:20.168Z,986.1
2018-06-24T09:41:30.190Z,986.09
2018-06-24T09:42:39.935Z,986.06
2018-06-24T09:43:49.683Z,986.06
2018-06-24T09:44:59.165Z,986.08
2018-06-24T09:46:08.916Z,986.09
2018-06-24T09:47:18.130Z,986.07
2018-06-24T09:48:27.882Z,986.12
2018-06-24T09:49:37.897Z,986.09
2018-06-24T09:50:47.655Z,986.07
2018-06-24T09:51:57.664Z,986.08
2018-06-24T09:53:07.146Z,986.06
2018-06-24T09:54:17.161Z,986.08
2018-06-24T09:55:27.178Z,986.07
2018-06-24T09:56:37.200Z,986.09
2018-06-24T09:57:46.949Z,986.04
2018-06-24T09:58:56.707Z,985.98
2018-06-24T10:00:06.726Z,985.99
2018-06-24T10:01:16.207Z,985.99
2018-06-24T10:02:25.952Z,985.98
2018-06-24T10:03:35.968Z,985.98
2018-06-24T10:04:46.024Z,985.96
2018-06-24T10:05:56.042Z,985.96
2018-06-24T10:07:05.533Z,986.01
2018-06-24T10:08:15.284Z,986.04
2018-06-24T10:09:25.307Z,986.01
2018-06-24T10:10:34.784Z,986
2018-06-24T10:11:44.530Z,986
2018-06-24T10:12:54.548Z,986.01
2018-06-24T10:14:04.299Z,986.07
2018-06-24T10:15:13.514Z,986.05
2018-06-24T10:16:23.263Z,986.07
2018-06-24T10:17:33.295Z,986.07
2018-06-24T10:18:43.410Z,986.05
2018-06-24T10:19:53.534Z,986
2018-06-24T10:21:03.552Z,985.95
2018-06-24T10:22:13.371Z,985.95
2018-06-24T10:23:23.383Z,985.92
2018-06-24T10:24:33.397Z,985.97
2018-06-24T10:25:42.612Z,985.97
2018-06-24T10:26:52.367Z,985.9
2018-06-24T10:28:02.115Z,985.94
2018-06-24T10:29:11.873Z,985.91
2018-06-24T10:30:21.930Z,985.94
2018-06-24T10:31:31.676Z,985.94
2018-06-24T10:32:41.158Z,985.92
2018-06-24T10:33:51.174Z,985.94
2018-06-24T10:35:00.655Z,985.94
2018-06-24T10:36:10.143Z,985.96
2018-06-24T10:37:23.349Z,985.93
2018-06-24T10:38:33.371Z,985.96
2018-06-24T10:39:43.112Z,985.93
2018-06-24T10:40:53.128Z,985.93
2018-06-24T10:42:03.185Z,985.94
2018-06-24T10:43:13.218Z,985.9
2018-06-24T10:44:23.235Z,985.93
2018-06-24T10:45:32.980Z,985.94
2018-06-24T10:46:42.999Z,985.92
2018-06-24T10:47:51.946Z,985.94
2018-06-24T10:49:01.702Z,985.97
2018-06-24T10:50:11.719Z,985.91
2018-06-24T10:51:21.468Z,985.93
2018-06-24T10:52:31.478Z,985.94
2018-06-24T10:53:41.235Z,985.9
2018-06-24T10:54:50.983Z,985.92
2018-06-24T10:56:01.021Z,985.91
2018-06-24T10:57:10.501Z,985.89
2018-06-24T10:58:19.986Z,985.87
2018-06-24T10:59:30.008Z,985.85
2018-06-24T11:00:40.026Z,985.83
2018-06-24T11:01:49.242Z,985.8
2018-06-24T11:02:58.783Z,985.84
2018-06-24T11:04:08.803Z,985.81
2018-06-24T11:05:18.557Z,985.79
2018-06-24T11:06:31.644Z,985.8
2018-06-24T11:07:41.400Z,985.81
2018-06-24T11:08:51.414Z,985.8
2018-06-24T11:10:01.165Z,985.79
2018-06-24T11:11:10.916Z,985.75
2018-06-24T11:12:20.398Z,985.76
2018-06-24T11:13:30.148Z,985.79
2018-06-24T11:14:39.893Z,985.76
2018-06-24T11:15:49.641Z,985.71
2018-06-24T11:16:59.126Z,985.68
2018-06-24T11:18:08.607Z,985.7
2018-06-24T11:19:18.632Z,985.72
2018-06-24T11:20:28.120Z,985.74
2018-06-24T11:21:38.140Z,985.72
2018-06-24T11:22:47.701Z,985.69
2018-06-24T11:23:57.751Z,985.7
2018-06-24T11:25:06.974Z,985.68
2018-06-24T11:26:16.724Z,985.67
2018-06-24T11:27:25.943Z,985.66
2018-06-24T11:28:35.957Z,985.67
2018-06-24T11:29:45.966Z,985.68
2018-06-24T11:30:56.042Z,985.64
2018-06-24T11:32:05.681Z,985.67
2018-06-24T11:33:15.696Z,985.67
2018-06-24T11:34:25.447Z,985.65
2018-06-24T11:35:35.477Z,985.68
2018-06-24T11:36:45.237Z,985.68
2018-06-24T11:37:55.292Z,985.7
2018-06-24T11:39:05.309Z,985.72
2018-06-24T11:40:15.071Z,985.68
2018-06-24T11:41:24.822Z,985.68
2018-06-24T11:42:34.308Z,985.71
2018-06-24T11:43:44.060Z,985.65
2018-06-24T11:44:53.851Z,985.67
2018-06-24T11:46:03.623Z,985.66
2018-06-24T11:47:13.655Z,985.64
2018-06-24T11:48:23.675Z,985.66
2018-06-24T11:49:33.691Z,985.65
2018-06-24T11:50:43.182Z,985.65
2018-06-24T11:51:52.934Z,985.67
2018-06-24T11:53:03.003Z,985.59
2018-06-24T11:54:12.752Z,985.66
2018-06-24T11:55:22.510Z,985.6
2018-06-24T11:56:31.998Z,985.63
2018-06-24T11:57:41.758Z,985.59
2018-06-24T11:58:51.780Z,985.56
2018-06-24T12:00:01.550Z,985.56
2018-06-24T12:01:11.317Z,985.6
2018-06-24T12:02:21.354Z,985.6
2018-06-24T12:03:31.274Z,985.63
2018-06-24T12:04:41.030Z,985.68
2018-06-24T12:05:50.783Z,985.65
2018-06-24T12:07:00.274Z,985.59
2018-06-24T12:08:10.305Z,985.62
2018-06-24T12:09:19.793Z,985.59
2018-06-24T12:10:29.548Z,985.55
2018-06-24T12:11:39.036Z,985.59
2018-06-24T12:12:49.056Z,985.6
2018-06-24T12:13:59.084Z,985.56
2018-06-24T12:15:08.847Z,985.53
2018-06-24T12:16:18.925Z,985.48
2018-06-24T12:17:28.682Z,985.45
2018-06-24T12:18:38.180Z,985.5
2018-06-24T12:19:47.668Z,985.48
2018-06-24T12:20:57.433Z,985.49
2018-06-24T12:22:07.446Z,985.49
2018-06-24T12:23:16.668Z,985.47
2018-06-24T12:24:26.694Z,985.47
2018-06-24T12:25:36.448Z,985.46
2018-06-24T12:26:46.477Z,985.56
2018-06-24T12:27:56.237Z,985.51
2018-06-24T12:29:05.991Z,985.49
2018-06-24T12:30:15.752Z,985.45
2018-06-24T12:31:25.771Z,985.41
2018-06-24T12:32:35.793Z,985.38
2018-06-24T12:33:45.285Z,985.38
2018-06-24T12:34:55.044Z,985.4
2018-06-24T12:36:04.805Z,985.42
2018-06-24T12:37:14.561Z,985.39
2018-06-24T12:38:24.472Z,985.38
2018-06-24T12:39:34.501Z,985.41
2018-06-24T12:40:44.534Z,985.37
2018-06-24T12:41:54.554Z,985.35
2018-06-24T12:43:04.316Z,985.36
2018-06-24T12:44:14.342Z,985.33
2018-06-24T12:45:24.101Z,985.27
2018-06-24T12:46:33.868Z,985.28
2018-06-24T12:47:43.626Z,985.33
2018-06-24T12:48:53.383Z,985.32
2018-06-24T12:50:03.421Z,985.34
2018-06-24T12:51:13.183Z,985.31
2018-06-24T12:52:23.207Z,985.27
2018-06-24T12:53:32.436Z,985.28
2018-06-24T12:54:42.193Z,985.26
2018-06-24T12:55:51.948Z,985.27
2018-06-24T12:57:01.443Z,985.24
2018-06-24T12:58:11.526Z,985.3
2018-06-24T12:59:22.072Z,985.27
2018-06-24T13:00:34.885Z,985.21
2018-06-24T13:01:48.587Z,985.29
2018-06-24T13:02:58.342Z,985.27
2018-06-24T13:04:07.563Z,985.25
2018-06-24T13:05:17.588Z,985.25
2018-06-24T13:06:27.539Z,985.26
2018-06-24T13:07:37.566Z,985.25
2018-06-24T13:08:47.325Z,985.23
2018-06-24T13:09:57.084Z,985.2
2018-06-24T13:11:07.120Z,985.22
2018-06-24T13:12:17.142Z,985.19
2018-06-24T13:13:27.171Z,985.2
2018-06-24T13:14:37.190Z,985.21
2018-06-24T13:15:47.214Z,985.2
2018-06-24T13:16:57.240Z,985.21
2018-06-24T13:18:06.999Z,985.17
2018-06-24T13:19:16.229Z,985.18
2018-06-24T13:20:25.719Z,985.2
2018-06-24T13:21:35.488Z,985.13
2018-06-24T13:22:45.526Z,985.17
2018-06-24T13:23:55.609Z,985.2
2018-06-24T13:25:05.099Z,985.14
2018-06-24T13:26:15.139Z,985.14
2018-06-24T13:27:25.162Z,985.17
2018-06-24T13:28:34.651Z,985.09
2018-06-24T13:29:44.673Z,985.08
2018-06-24T13:30:54.694Z,985.04
2018-06-24T13:32:04.483Z,985.04
2018-06-24T13:33:14.222Z,985.09
2018-06-24T13:34:24.245Z,985.08
2018-06-24T13:35:33.997Z,985.07
2018-06-24T13:36:44.020Z,985.1
2018-06-24T13:37:53.775Z,985.05
2018-06-24T13:39:03.795Z,985.11
2018-06-24T13:40:13.890Z,985.12
2018-06-24T13:41:24.194Z,985.07
2018-06-24T13:42:33.683Z,985.1
2018-06-24T13:43:42.638Z,985.1
2018-06-24T13:44:52.660Z,985.08
2018-06-24T13:46:02.147Z,985.04
2018-06-24T13:47:11.901Z,985.08
2018-06-24T13:48:21.662Z,985.06
2018-06-24T13:49:31.419Z,985.03
2018-06-24T13:50:41.443Z,985.06
2018-06-24T13:51:51.198Z,985.06
2018-06-24T13:53:00.948Z,985.08
2018-06-24T13:54:10.448Z,985.06
2018-06-24T13:55:20.470Z,985.13
2018-06-24T13:56:30.219Z,985.1
2018-06-24T13:57:39.436Z,985.08
2018-06-24T13:58:49.463Z,985.11
2018-06-24T13:59:59.491Z,985.05
2018-06-24T14:01:09.298Z,985.07
2018-06-24T14:02:19.058Z,985.07
2018-06-24T14:03:28.817Z,985.06
2018-06-24T14:04:38.838Z,985.02
2018-06-24T14:05:48.054Z,985.03
2018-06-24T14:06:57.850Z,985.02
2018-06-24T14:08:07.603Z,985.02
2018-06-24T14:09:17.363Z,985
2018-06-24T14:10:26.856Z,984.96
2018-06-24T14:11:36.607Z,985.05
2018-06-24T14:12:46.630Z,985.04
2018-06-24T14:13:56.691Z,985.04
2018-06-24T14:15:06.824Z,985.05
2018-06-24T14:16:16.849Z,985.03
2018-06-24T14:17:26.870Z,985.08
2018-06-24T14:18:36.355Z,985.08
2018-06-24T14:19:46.112Z,985.09
2018-06-24T14:20:56.136Z,985.11
2018-06-24T14:22:05.624Z,985.12
2018-06-24T14:23:15.683Z,985.13
2018-06-24T14:24:25.954Z,985.13
2018-06-24T14:25:35.974Z,985.08
2018-06-24T14:26:45.743Z,985.07
2018-06-24T14:27:55.564Z,985.03
2018-06-24T14:29:05.586Z,984.98
2018-06-24T14:30:15.081Z,985.03
2018-06-24T14:31:24.572Z,985.08
2018-06-24T14:32:34.335Z,985.04
2018-06-24T14:33:43.826Z,984.97
2018-06-24T14:34:53.844Z,985.03
2018-06-24T14:36:03.872Z,985.04
2018-06-24T14:37:13.628Z,985.05